Strona główna
METAR-TAF:

METAR-TAF

Lotnisko :

Port lotniczy Amsterdam-Schiphol

Amsterdam, Holandia

Szerokość geograficzna: 52-18N, Długość geograficzna: 004-46E, wysokość: -4 m

Aktualna obserwacja pogody

Raport powstał 38 minut temu, godzina 23:25 UTC
Wiatr 8 kt od wschodnio-południowy wschód
Temperatura 7°C
Wilgotność 57%
Ciśnienie 1023 hPa
Widzialność 10 km lub więcej
Brak chmur poniżej 1500 m i brak chmur cumulonimbus

METAR: EHAM 042325Z 11008KT CAVOK 07/M01 Q1023 NOSIG

czas: 02:03 (00:03 UTC)

Prognoza

Raport powstał 1 godzina i 30 minut temu, godzina 22:33 UTC
Prognoza ważna od 05 godzina 00 UTC do 06 godzina 06 UTC
Wiatr 7 kt od wschodnio-południowy wschód
Widzialność 10 km lub więcej
Brak chmur poniżej 1500 m i brak chmur cumulonimbus
Stopniowe zmiany
od 05 godzina 08 UTC do 05 godzina 11 UTC
Wiatr 17 kt od południowy wschód
Stopniowe zmiany
od 05 godzina 15 UTC do 05 godzina 18 UTC
Wiatr 10 kt od południowy wschód

TAF: EHAM 042233Z 0500/0606 12007KT CAVOK BECMG 0508/0511 14017KT BECMG 0515/0518 14010KT

Obserwacja i prognoza pogody dla ponad 4000 lotnisk (raport METAR i TAF).

Dostępne stacje oznaczono żółtymi i czerwonymi punktami na mapie.

Najedź kursorem aby zobaczyć nazwę stacji.

Kliknij aby zobaczyć obserwacje i prognozy pogody.

Aby zmienić mapę: kliknij na zielony przycisk z czarnym krzyżykiem, aby powiększyć; na zielony przycisk z myślnikiem, aby pomniejszyć; na zielone strzałki, aby przejść do map sąsiednich.


METAR-TAF: